Time;durP1;ratioP1;P1;durP2;ratioP2;P2;SDS_P1;SDS_P2;PMS_P1;PMS_P2;Temp;Humidity;BMP_temperature;BMP_pressure;BME280_temperature;BME280_humidity;BME280_pressure;Samples;Min_cycle;Max_cycle;Signal;HPM_P1;HPM_P2
2022/04/14 00:00:12;;;;;;;33.03;28.13;;;13.30;99.90;;;;;;5136490;27;20192;-78
2022/04/14 00:02:39;;;;;;;36.13;30.37;;;13.30;99.90;;;;;;5136343;27;20199;-82
2022/04/14 00:05:07;;;;;;;32.53;28.97;;;13.30;99.90;;;;;;5135608;27;20298;-83
2022/04/14 00:07:34;;;;;;;35.07;28.43;;;13.30;99.90;;;;;;5135600;27;20215;-78
2022/04/14 00:10:02;;;;;;;35.57;28.43;;;13.30;99.90;;;;;;5135645;27;20532;-81
2022/04/14 00:12:29;;;;;;;33.07;29.47;;;13.20;99.90;;;;;;5135812;27;20223;-81
2022/04/14 00:14:56;;;;;;;32.63;29.13;;;13.10;99.90;;;;;;5135749;27;20210;-82
2022/04/14 00:17:24;;;;;;;32.63;29.10;;;13.10;99.90;;;;;;5135403;27;20661;-81
2022/04/14 00:19:51;;;;;;;32.07;28.63;;;13.20;99.90;;;;;;5135579;27;20200;-82
2022/04/14 00:22:18;;;;;;;32.70;28.20;;;13.20;99.90;;;;;;5135195;27;20207;-82
2022/04/14 00:24:44;;;;;;;35.10;31.30;;;13.20;99.90;;;;;;5135792;27;20230;-80
2022/04/14 00:27:11;;;;;;;34.50;30.47;;;13.10;99.90;;;;;;5135180;27;20219;-81
2022/04/14 00:29:38;;;;;;;34.63;29.40;;;13.10;99.90;;;;;;5135471;27;20210;-81
2022/04/14 00:32:06;;;;;;;37.27;30.93;;;13.10;99.90;;;;;;5135951;27;20211;-81
2022/04/14 00:34:34;;;;;;;38.23;31.53;;;13.10;99.90;;;;;;5135902;27;20654;-83
2022/04/14 00:37:02;;;;;;;33.67;30.07;;;13.10;99.90;;;;;;5135729;27;20191;-77
2022/04/14 00:39:29;;;;;;;33.23;29.63;;;13.10;99.90;;;;;;5135078;27;20550;-79
2022/04/14 00:41:56;;;;;;;41.47;31.20;;;13.10;99.90;;;;;;5134633;27;20211;-79
2022/04/14 00:44:23;;;;;;;36.27;32.13;;;13.00;99.90;;;;;;5134543;27;20193;-82
2022/04/14 00:46:50;;;;;;;37.17;30.80;;;12.90;99.90;;;;;;5134779;27;20203;-78
2022/04/14 00:49:19;;;;;;;35.37;31.20;;;12.80;99.90;;;;;;5135321;27;20194;-79
2022/04/14 00:51:48;;;;;;;34.10;30.20;;;12.80;99.90;;;;;;5135060;27;20273;-81
2022/04/14 00:54:15;;;;;;;33.27;29.73;;;12.70;99.90;;;;;;5135260;27;20214;-82
2022/04/14 00:56:42;;;;;;;34.03;30.37;;;12.60;99.90;;;;;;5134823;27;20187;-80
2022/04/14 00:59:10;;;;;;;33.50;28.53;;;12.50;99.90;;;;;;5134693;27;20207;-79
2022/04/14 01:01:38;;;;;;;35.80;32.05;;;12.60;99.90;;;;;;5134608;27;20775;-82
2022/04/14 01:04:06;;;;;;;35.27;30.67;;;12.60;99.90;;;;;;5134736;27;20211;-80
2022/04/14 01:06:37;;;;;;;40.47;31.17;;;12.60;99.90;;;;;;5134632;27;20288;-81
2022/04/14 01:09:19;;;;;;;37.77;32.10;;;12.60;99.90;;;;;;5135281;27;20286;-80
2022/04/14 01:11:46;;;;;;;37.40;30.43;;;12.60;99.90;;;;;;5135218;27;20202;-81
2022/04/14 01:14:20;;;;;;;39.10;33.33;;;12.70;99.90;;;;;;5135287;27;20194;-85
2022/04/14 01:16:47;;;;;;;37.53;33.10;;;12.70;99.90;;;;;;5135338;27;20199;-81
2022/04/14 01:19:16;;;;;;;39.37;32.70;;;12.60;99.90;;;;;;5134987;27;20202;-81
2022/04/14 01:21:48;;;;;;;36.23;32.30;;;12.60;99.90;;;;;;5134997;27;20195;-82
2022/04/14 01:24:19;;;;;;;36.63;31.10;;;12.60;99.90;;;;;;5134662;27;20197;-80
2022/04/14 01:26:48;;;;;;;45.08;40.30;;;12.70;99.90;;;;;;5133115;27;20795;-81
2022/04/14 01:29:22;;;;;;;39.90;33.47;;;12.80;99.90;;;;;;5134613;27;20210;-80
2022/04/14 01:31:50;;;;;;;36.20;31.67;;;12.70;99.90;;;;;;5134101;27;20194;-80
2022/04/14 01:34:18;;;;;;;36.77;32.07;;;12.60;99.90;;;;;;5134480;27;20202;-81
2022/04/14 01:36:47;;;;;;;37.87;32.27;;;12.60;99.90;;;;;;5134059;27;20202;-78
2022/04/14 01:39:14;;;;;;;38.20;31.33;;;12.50;99.90;;;;;;5133888;27;20190;-76
2022/04/14 01:41:43;;;;;;;39.20;33.23;;;12.40;99.90;;;;;;5134265;27;20233;-78
2022/04/14 01:44:11;;;;;;;37.90;32.17;;;12.50;99.90;;;;;;5134385;27;20202;-79
2022/04/14 01:46:41;;;;;;;44.77;33.63;;;12.40;99.90;;;;;;5133745;27;20191;-77
2022/04/14 01:49:08;;;;;;;40.03;33.07;;;12.50;99.90;;;;;;5134059;27;20190;-80
2022/04/14 01:51:34;;;;;;;39.00;32.90;;;12.40;99.90;;;;;;5134174;27;20202;-77
2022/04/14 01:54:03;;;;;;;43.57;33.83;;;12.40;99.90;;;;;;5133731;27;20218;-82
2022/04/14 01:56:30;;;;;;;38.00;32.83;;;12.40;99.90;;;;;;5133443;27;20217;-77
2022/04/14 01:58:58;;;;;;;43.77;34.53;;;12.40;99.90;;;;;;5133904;27;20206;-81
2022/04/14 02:01:25;;;;;;;39.13;32.57;;;12.50;99.90;;;;;;5133732;27;20639;-82
2022/04/14 02:03:54;;;;;;;41.43;33.67;;;12.40;99.90;;;;;;5133991;27;20195;-81
2022/04/14 02:06:21;;;;;;;38.27;33.90;;;12.40;99.90;;;;;;5133699;27;20293;-82
2022/04/14 02:08:49;;;;;;;42.47;34.57;;;12.30;99.90;;;;;;5133283;27;20206;-80
2022/04/14 02:11:16;;;;;;;43.17;33.63;;;12.30;99.90;;;;;;5134077;27;20198;-79
2022/04/14 02:13:44;;;;;;;38.67;32.60;;;12.30;99.90;;;;;;5133771;27;20226;-84
2022/04/14 02:16:13;;;;;;;41.03;35.00;;;12.30;99.90;;;;;;5134193;27;20536;-79
2022/04/14 02:18:40;;;;;;;41.10;33.47;;;12.20;99.90;;;;;;5133649;27;20289;-75
2022/04/14 02:21:07;;;;;;;44.80;34.83;;;12.10;99.90;;;;;;5133886;27;20194;-83
2022/04/14 02:23:35;;;;;;;42.93;34.93;;;12.10;99.90;;;;;;5133502;27;20506;-81
2022/04/14 02:26:01;;;;;;;44.17;34.03;;;12.10;99.90;;;;;;5134173;27;20202;-80
2022/04/14 02:28:28;;;;;;;51.53;35.83;;;12.00;99.90;;;;;;5133440;27;20700;-80
2022/04/14 02:30:55;;;;;;;44.17;34.90;;;12.00;99.90;;;;;;5133993;27;20205;-80
2022/04/14 02:33:23;;;;;;;42.23;35.03;;;11.90;99.90;;;;;;5133585;27;20400;-82
2022/04/14 02:35:51;;;;;;;44.05;38.00;;;11.90;99.90;;;;;;5133236;27;20874;-82
2022/04/14 02:38:18;;;;;;;41.90;34.13;;;11.90;99.90;;;;;;5133548;27;20209;-82
2022/04/14 02:40:44;;;;;;;53.63;33.93;;;11.80;99.90;;;;;;5133767;27;20195;-83
2022/04/14 02:43:11;;;;;;;43.63;32.77;;;11.70;99.90;;;;;;5133560;27;20195;-82
2022/04/14 02:45:39;;;;;;;44.00;35.63;;;11.60;99.90;;;;;;5133546;27;20654;-81
2022/04/14 02:48:06;;;;;;;44.00;35.63;;;11.50;99.90;;;;;;5134109;27;20197;-80
2022/04/14 02:50:36;;;;;;;45.00;37.30;;;11.50;99.90;;;;;;5133600;27;20198;-83
2022/04/14 02:53:04;;;;;;;49.10;39.83;;;11.50;99.90;;;;;;5133401;27;20268;-85
2022/04/14 02:55:32;;;;;;;54.90;38.27;;;11.50;99.90;;;;;;5133603;27;20530;-80
2022/04/14 02:57:59;;;;;;;58.33;35.13;;;11.50;99.90;;;;;;5133397;27;20208;-82
2022/04/14 03:00:25;;;;;;;66.43;48.10;;;11.40;99.90;;;;;;5132374;27;20794;-78
2022/04/14 03:02:53;;;;;;;48.10;37.33;;;11.40;99.90;;;;;;5133379;27;20660;-81
2022/04/14 03:05:20;;;;;;;40.73;34.67;;;11.50;99.90;;;;;;5130561;27;20207;-82
2022/04/14 03:07:48;;;;;;;40.47;34.97;;;11.40;99.90;;;;;;5111666;28;20647;-82
2022/04/14 03:10:16;;;;;;;38.23;34.13;;;11.40;99.90;;;;;;5115593;28;20208;-80
2022/04/14 03:12:47;;;;;;;37.40;33.40;;;11.20;99.90;;;;;;5115747;28;20204;-80
2022/04/14 03:15:15;;;;;;;36.77;32.17;;;11.20;99.90;;;;;;5116601;28;20239;-82
2022/04/14 03:17:42;;;;;;;35.37;30.97;;;11.30;99.90;;;;;;5116677;28;20195;-80
2022/04/14 03:20:11;;;;;;;35.60;31.73;;;11.30;99.90;;;;;;5116622;28;20209;-79
2022/04/14 03:22:40;;;;;;;40.43;36.23;;;11.20;99.90;;;;;;5115716;28;20800;-82
2022/04/14 03:25:11;;;;;;;37.03;33.10;;;11.30;99.90;;;;;;5116217;28;20449;-81
2022/04/14 03:27:39;;;;;;;38.10;33.93;;;11.20;99.90;;;;;;5116271;27;20232;-81
2022/04/14 03:30:08;;;;;;;35.03;30.60;;;11.30;99.90;;;;;;5116692;28;20554;-83
2022/04/14 03:32:40;;;;;;;40.27;32.87;;;11.20;99.90;;;;;;5116343;28;20202;-83
2022/04/14 03:35:10;;;;;;;39.57;33.17;;;11.20;99.90;;;;;;5116329;27;20208;-82
2022/04/14 03:37:38;;;;;;;40.73;34.67;;;11.10;99.90;;;;;;5116118;28;20203;-80
2022/04/14 03:40:09;;;;;;;38.23;32.67;;;11.00;99.90;;;;;;5116045;28;20196;-82
2022/04/14 03:42:37;;;;;;;36.33;32.37;;;10.90;99.90;;;;;;5115760;28;20212;-83
2022/04/14 03:45:04;;;;;;;37.83;31.67;;;10.80;99.90;;;;;;5116143;28;20190;-81
2022/04/14 03:47:37;;;;;;;36.30;30.87;;;10.80;99.90;;;;;;5115912;28;20543;-81
2022/04/14 03:50:05;;;;;;;35.30;31.60;;;10.90;99.90;;;;;;5115896;28;20193;-82
2022/04/14 03:52:33;;;;;;;35.63;31.77;;;10.90;99.90;;;;;;5115917;27;20188;-83
2022/04/14 03:55:01;;;;;;;35.93;32.20;;;10.80;99.90;;;;;;5115492;28;20574;-82
2022/04/14 03:57:30;;;;;;;36.17;32.37;;;10.70;99.90;;;;;;5115760;28;20562;-82
2022/04/14 03:59:57;;;;;;;35.90;31.43;;;10.70;99.90;;;;;;5116244;27;20216;-83
2022/04/14 04:02:26;;;;;;;37.57;33.23;;;10.60;99.90;;;;;;5115991;28;20211;-82
2022/04/14 04:04:54;;;;;;;37.57;31.23;;;10.50;99.90;;;;;;5115239;28;20296;-83
2022/04/14 04:07:22;;;;;;;37.43;33.03;;;10.50;99.90;;;;;;5115822;28;20231;-81
2022/04/14 04:09:50;;;;;;;34.80;31.10;;;10.40;99.90;;;;;;5115737;28;20200;-81
2022/04/14 04:12:21;;;;;;;38.60;31.27;;;10.40;99.90;;;;;;5115893;28;20196;-84
2022/04/14 04:14:55;;;;;;;40.93;32.03;;;10.40;99.90;;;;;;5115811;28;20541;-81
2022/04/14 04:17:24;;;;;;;35.70;31.30;;;10.30;99.90;;;;;;5115653;28;20216;-82
2022/04/14 04:19:50;;;;;;;38.43;31.73;;;10.20;99.90;;;;;;5115119;28;20189;-84
2022/04/14 04:22:17;;;;;;;36.97;30.90;;;10.10;99.90;;;;;;5115702;28;20196;-84
2022/04/14 04:24:46;;;;;;;38.17;32.30;;;10.00;99.90;;;;;;5115599;28;20255;-81
2022/04/14 04:27:15;;;;;;;37.03;31.77;;;10.00;99.90;;;;;;5115434;28;20237;-81
2022/04/14 04:29:42;;;;;;;34.30;30.63;;;10.10;99.90;;;;;;5115642;28;20207;-80
2022/04/14 04:32:10;;;;;;;34.53;30.23;;;10.10;99.90;;;;;;5115147;27;20193;-82
2022/04/14 04:34:43;;;;;;;34.77;30.97;;;10.10;99.90;;;;;;5114768;28;20228;-82
2022/04/14 04:37:10;;;;;;;35.53;30.33;;;9.90;99.90;;;;;;5115237;28;20197;-83
2022/04/14 04:39:40;;;;;;;34.73;29.93;;;10.00;99.90;;;;;;5115037;28;20208;-82
2022/04/14 04:42:08;;;;;;;31.93;28.53;;;10.00;99.90;;;;;;5114819;28;20216;-83
2022/04/14 04:44:37;;;;;;;32.07;28.67;;;10.00;99.90;;;;;;5115042;28;20207;-84
2022/04/14 04:47:04;;;;;;;31.60;28.30;;;10.00;99.90;;;;;;5115398;28;20211;-83
2022/04/14 04:49:34;;;;;;;32.20;28.70;;;10.00;99.90;;;;;;5115131;28;20193;-82
2022/04/14 04:52:01;;;;;;;33.37;29.77;;;10.00;99.90;;;;;;5114910;28;20211;-82
2022/04/14 04:54:28;;;;;;;32.17;28.73;;;9.90;99.90;;;;;;5114705;28;20235;-81
2022/04/14 04:56:54;;;;;;;33.83;29.10;;;10.00;99.90;;;;;;5114659;28;20196;-83
2022/04/14 04:59:21;;;;;;;33.17;29.33;;;9.90;99.90;;;;;;5114678;28;20201;-80
2022/04/14 05:01:48;;;;;;;32.60;29.20;;;9.90;99.90;;;;;;5118070;27;20289;-82
2022/04/14 05:04:16;;;;;;;31.80;28.40;;;9.70;99.90;;;;;;5134966;27;20192;-82
2022/04/14 05:06:45;;;;;;;31.30;28.03;;;9.60;99.90;;;;;;5135517;27;20196;-80
2022/04/14 05:09:13;;;;;;;31.87;28.33;;;9.50;99.90;;;;;;5135182;27;20195;-82
2022/04/14 05:11:40;;;;;;;31.53;28.17;;;9.70;99.90;;;;;;5135261;27;20188;-81
2022/04/14 05:14:08;;;;;;;30.07;26.87;;;9.80;99.90;;;;;;5134621;27;20404;-83
2022/04/14 05:16:40;;;;;;;30.93;27.73;;;9.80;99.90;;;;;;5135180;27;20203;-84
2022/04/14 05:19:07;;;;;;;31.50;28.10;;;9.70;99.90;;;;;;5134362;27;20785;-83
2022/04/14 05:21:36;;;;;;;36.45;33.15;;;9.60;99.90;;;;;;5133330;27;20433;-83
2022/04/14 05:24:05;;;;;;;32.60;29.20;;;9.70;99.90;;;;;;5134993;27;20204;-81
2022/04/14 05:26:32;;;;;;;31.60;27.30;;;9.80;99.90;;;;;;5134632;27;20195;-80
2022/04/14 05:28:59;;;;;;;29.17;26.23;;;9.90;99.90;;;;;;5134694;27;20208;-82
2022/04/14 05:31:26;;;;;;;29.80;26.73;;;9.90;99.90;;;;;;5134675;27;20212;-84
2022/04/14 05:33:54;;;;;;;30.03;27.03;;;9.90;99.90;;;;;;5134883;27;20235;-82
2022/04/14 05:36:21;;;;;;;28.00;25.20;;;9.80;99.90;;;;;;5135017;27;20188;-83
2022/04/14 05:38:48;;;;;;;28.40;25.43;;;9.70;99.90;;;;;;5134950;27;20211;-83
2022/04/14 05:41:16;;;;;;;27.17;24.27;;;9.70;99.90;;;;;;5135197;27;20211;-83
2022/04/14 05:43:45;;;;;;;28.42;25.80;;;9.80;99.90;;;;;;5135501;27;20431;-81
2022/04/14 05:46:12;;;;;;;27.17;24.47;;;9.90;99.90;;;;;;5133930;27;20195;-82
2022/04/14 05:48:38;;;;;;;27.87;24.43;;;9.80;99.90;;;;;;5133835;27;20678;-78
2022/04/14 05:51:07;;;;;;;27.93;25.13;;;9.70;99.90;;;;;;5134335;27;20222;-81
2022/04/14 05:53:35;;;;;;;27.63;24.83;;;9.90;99.90;;;;;;5129288;27;20224;-76
2022/04/14 05:56:02;;;;;;;25.93;23.17;;;10.00;99.90;;;;;;5113157;28;20247;-82
2022/04/14 05:58:30;;;;;;;26.53;23.70;;;9.90;99.90;;;;;;5112898;28;20251;-79
2022/04/14 06:00:58;;;;;;;25.57;23.07;;;9.80;99.90;;;;;;5112550;28;20216;-81
2022/04/14 06:03:26;;;;;;;26.57;23.97;;;9.80;99.90;;;;;;5113054;28;20200;-76
2022/04/14 06:05:53;;;;;;;23.90;21.60;;;9.90;99.90;;;;;;5113258;28;20196;-81
2022/04/14 06:08:20;;;;;;;25.20;22.70;;;10.10;99.90;;;;;;5112894;28;20196;-76
2022/04/14 06:10:47;;;;;;;24.83;22.37;;;10.20;99.90;;;;;;5113039;28;20228;-78
2022/04/14 06:13:14;;;;;;;25.97;23.23;;;10.30;99.90;;;;;;5112805;28;20205;-76
2022/04/14 06:15:42;;;;;;;26.23;23.30;;;10.40;99.90;;;;;;5112703;28;20300;-82
2022/04/14 06:18:09;;;;;;;26.27;23.63;;;10.40;99.90;;;;;;5112643;28;20201;-77
2022/04/14 06:20:35;;;;;;;25.50;22.77;;;10.40;99.90;;;;;;5115638;28;20201;-79
2022/04/14 06:23:02;;;;;;;26.27;23.57;;;10.40;99.90;;;;;;5112484;28;20200;-80
2022/04/14 06:25:35;;;;;;;25.33;22.93;;;10.30;99.90;;;;;;5123199;27;20246;-83
2022/04/14 06:28:03;;;;;;;26.40;22.63;;;10.40;99.90;;;;;;5133093;27;20224;-78
2022/04/14 06:30:30;;;;;;;24.57;22.33;;;10.50;99.90;;;;;;5132965;27;20227;-76
2022/04/14 06:33:00;;;;;;;24.43;22.10;;;10.60;99.90;;;;;;5123705;27;20200;-81
2022/04/14 06:35:27;;;;;;;26.40;23.67;;;10.70;99.90;;;;;;5112649;28;20224;-82
2022/04/14 06:37:56;;;;;;;25.70;23.20;;;10.80;99.90;;;;;;5123736;28;20241;-81
2022/04/14 06:40:23;;;;;;;27.93;22.70;;;11.00;99.90;;;;;;5132288;27;20203;-78
2022/04/14 06:42:50;;;;;;;27.27;24.40;;;11.00;99.90;;;;;;5114442;28;20205;-77
2022/04/14 06:45:19;;;;;;;25.07;22.57;;;11.10;99.90;;;;;;5116344;28;20200;-81
2022/04/14 06:47:47;;;;;;;27.67;23.53;;;11.10;99.90;;;;;;5116552;28;20192;-81
2022/04/14 06:50:15;;;;;;;26.47;23.67;;;11.30;99.90;;;;;;5117298;28;20637;-81
2022/04/14 06:52:41;;;;;;;28.33;24.17;;;11.40;99.90;;;;;;5117500;28;20188;-79
2022/04/14 06:55:10;;;;;;;28.60;25.08;;;11.40;99.90;;;;;;5117211;28;20440;-78
2022/04/14 06:57:37;;;;;;;30.37;23.33;;;11.60;99.90;;;;;;5117277;28;20228;-75
2022/04/14 07:00:06;;;;;;;27.93;23.73;;;11.60;99.90;;;;;;5116710;28;20205;-81
2022/04/14 07:02:35;;;;;;;25.73;22.97;;;11.60;99.90;;;;;;5123004;27;20204;-82
2022/04/14 07:05:02;;;;;;;27.90;24.20;;;11.60;99.90;;;;;;5135760;27;20234;-81
2022/04/14 07:07:30;;;;;;;29.53;22.77;;;11.80;99.90;;;;;;5119250;27;20213;-82
2022/04/14 07:09:59;;;;;;;26.33;21.57;;;11.90;99.90;;;;;;5115833;28;20190;-83
2022/04/14 07:12:25;;;;;;;27.13;20.93;;;12.10;99.90;;;;;;5116187;28;20561;-83
2022/04/14 07:14:53;;;;;;;22.50;20.10;;;12.20;99.90;;;;;;5121874;27;20567;-83
2022/04/14 07:17:22;;;;;;;23.70;19.77;;;12.30;99.90;;;;;;5135096;27;20202;-85
2022/04/14 07:19:49;;;;;;;23.97;18.30;;;12.30;99.90;;;;;;5117128;28;20256;-87
2022/04/14 07:22:18;;;;;;;21.80;18.33;;;12.40;99.90;;;;;;5117061;27;20203;-85
2022/04/14 07:24:47;;;;;;;20.67;17.20;;;12.40;99.90;;;;;;5116597;27;20591;-86
2022/04/14 07:27:14;;;;;;;24.50;15.87;;;12.50;99.90;;;;;;5116217;28;20221;-83
2022/04/14 07:29:41;;;;;;;21.57;15.10;;;12.40;99.90;;;;;;5117349;28;20628;-77
2022/04/14 07:32:08;;;;;;;22.27;15.77;;;12.50;99.90;;;;;;5115577;27;20211;-82
2022/04/14 07:34:35;;;;;;;19.13;13.87;;;12.60;99.90;;;;;;5120533;27;20238;-84
2022/04/14 07:37:02;;;;;;;21.30;14.60;;;12.80;99.90;;;;;;5115608;27;20753;-79
2022/04/14 07:39:28;;;;;;;18.43;12.83;;;12.90;99.90;;;;;;5114974;28;20207;-80
2022/04/14 07:41:59;;;;;;;18.57;12.80;;;13.00;99.90;;;;;;5115381;27;20226;-79
2022/04/14 07:44:25;;;;;;;18.03;12.23;;;13.10;99.90;;;;;;5115118;28;20650;-81
2022/04/14 07:46:52;;;;;;;19.53;11.70;;;13.30;99.90;;;;;;5115693;28;20214;-83
2022/04/14 07:49:20;;;;;;;19.30;11.83;;;13.40;99.90;;;;;;5115910;28;20676;-85
2022/04/14 07:51:48;;;;;;;17.60;11.27;;;13.50;99.90;;;;;;5115317;28;20188;-83
2022/04/14 07:54:15;;;;;;;17.33;12.00;;;13.70;99.90;;;;;;5115131;28;20224;-80
2022/04/14 07:56:44;;;;;;;20.93;12.13;;;13.90;99.90;;;;;;5114831;28;20670;-82
2022/04/14 07:59:13;;;;;;;16.07;10.80;;;13.90;99.90;;;;;;5115957;28;20233;-78
2022/04/14 08:01:40;;;;;;;18.30;11.10;;;14.00;99.90;;;;;;5115182;28;20193;-78
2022/04/14 08:04:06;;;;;;;16.40;10.20;;;14.10;99.90;;;;;;5115118;27;20215;-77
2022/04/14 08:06:33;;;;;;;16.30;10.73;;;14.10;99.90;;;;;;5114951;28;20382;-78
2022/04/14 08:09:02;;;;;;;14.70;11.07;;;14.20;99.90;;;;;;5114563;28;20296;-79
2022/04/14 08:11:29;;;;;;;17.90;11.57;;;14.30;99.90;;;;;;5114730;28;20566;-78
2022/04/14 08:13:56;;;;;;;16.53;10.60;;;14.50;99.90;;;;;;5115128;28;20196;-78
2022/04/14 08:16:24;;;;;;;16.17;11.30;;;14.40;99.90;;;;;;5114799;28;20220;-78
2022/04/14 08:18:51;;;;;;;13.50;10.70;;;14.50;99.90;;;;;;5114792;28;20196;-82
2022/04/14 08:21:19;;;;;;;14.03;10.33;;;14.70;99.90;;;;;;5116314;28;20648;-81
2022/04/14 08:23:46;;;;;;;15.93;9.33;;;14.70;99.90;;;;;;5115582;28;20185;-80
2022/04/14 08:26:13;;;;;;;13.47;8.40;;;14.80;99.90;;;;;;5114890;28;20197;-79
2022/04/14 08:28:41;;;;;;;13.47;9.57;;;15.00;99.90;;;;;;5114985;28;20303;-81
2022/04/14 08:31:09;;;;;;;16.60;11.18;;;15.00;99.90;;;;;;5114262;28;20432;-82
2022/04/14 08:33:38;;;;;;;16.27;9.73;;;15.30;99.90;;;;;;5115131;27;20677;-79
2022/04/14 08:36:05;;;;;;;14.27;8.90;;;15.50;99.90;;;;;;5114903;28;20224;-86
2022/04/14 08:38:32;;;;;;;20.53;9.87;;;15.60;99.90;;;;;;5115081;28;20239;-84
2022/04/14 08:41:03;;;;;;;15.33;9.10;;;15.70;99.90;;;;;;5115031;28;20236;-80
2022/04/14 08:43:34;;;;;;;13.33;8.80;;;15.80;99.90;;;;;;5120219;27;20296;-86
2022/04/14 08:46:03;;;;;;;11.23;8.77;;;15.90;99.90;;;;;;5120390;27;20206;-84
2022/04/14 08:48:32;;;;;;;13.80;9.40;;;16.00;99.90;;;;;;5115394;28;20210;-87
2022/04/14 08:51:00;;;;;;;13.93;9.10;;;15.90;99.90;;;;;;5118939;27;20191;-86
2022/04/14 08:53:28;;;;;;;11.27;7.80;;;15.90;99.90;;;;;;5130612;27;20200;-91
2022/04/14 08:55:56;;;;;;;13.48;9.70;;;15.80;99.90;;;;;;5127521;27;20456;-82
2022/04/14 08:58:26;;;;;;;8.23;7.30;;;16.00;99.90;;;;;;5125056;27;20207;-78
2022/04/14 09:00:54;;;;;;;8.87;6.90;;;16.10;99.90;;;;;;5115898;27;20214;-85
2022/04/14 09:03:25;;;;;;;9.30;7.00;;;16.00;99.90;;;;;;5114210;28;20202;-82
2022/04/14 09:05:52;;;;;;;9.13;6.70;;;16.00;99.90;;;;;;5112746;28;20238;-78
2022/04/14 09:08:21;;;;;;;11.50;7.30;;;16.10;99.90;;;;;;5113229;28;20194;-78
2022/04/14 09:10:50;;;;;;;11.27;7.63;;;16.20;99.90;;;;;;5115452;27;20193;-79
2022/04/14 09:13:20;;;;;;;11.60;6.77;;;16.30;99.90;;;;;;5121563;27;20203;-88
2022/04/14 09:15:47;;;;;;;12.40;6.00;;;16.40;99.90;;;;;;5114557;28;20243;-76
2022/04/14 09:18:17;;;;;;;11.53;7.10;;;16.40;99.90;;;;;;5115897;28;20203;-80
2022/04/14 09:20:48;;;;;;;13.80;7.23;;;16.50;99.90;;;;;;5114107;27;20211;-81
2022/04/14 09:23:21;;;;;;;8.30;6.37;;;16.40;99.90;;;;;;5113632;28;20703;-79
2022/04/14 09:25:51;;;;;;;10.47;6.73;;;16.60;99.90;;;;;;5114064;28;20217;-81
2022/04/14 09:28:19;;;;;;;8.33;6.60;;;16.60;99.90;;;;;;5112996;28;20223;-78
2022/04/14 09:30:59;;;;;;;10.97;7.00;;;16.60;99.90;;;;;;5113189;28;20212;-78
2022/04/14 09:33:27;;;;;;;12.47;6.63;;;16.60;99.90;;;;;;5113758;28;20243;-78
2022/04/14 09:36:13;;;;;;;13.47;6.60;;;16.70;99.90;;;;;;5115049;28;20224;-77
2022/04/14 09:38:59;;;;;;;7.10;6.37;;;17.00;99.90;;;;;;5115656;28;20265;-78
2022/04/14 09:41:31;;;;;;;11.40;6.47;;;16.80;99.90;;;;;;5115296;27;20208;-78
2022/04/14 09:43:59;;;;;;;9.67;6.63;;;16.80;99.90;;;;;;5111815;27;20211;-79
2022/04/14 09:46:26;;;;;;;7.47;5.60;;;17.00;99.90;;;;;;5113496;27;20697;-78
2022/04/14 09:49:06;;;;;;;8.87;5.27;;;17.00;99.90;;;;;;5113426;28;20261;-80
2022/04/14 09:51:35;;;;;;;11.23;5.67;;;17.20;99.90;;;;;;5113651;28;20199;-79
2022/04/14 09:54:13;;;;;;;10.60;5.67;;;17.20;99.90;;;;;;5113418;28;20200;-81
2022/04/14 09:56:43;;;;;;;9.57;5.57;;;17.20;99.90;;;;;;5113635;28;20734;-78
2022/04/14 09:59:12;;;;;;;7.57;5.50;;;17.40;99.90;;;;;;5113535;28;20204;-80
2022/04/14 10:01:39;;;;;;;5.57;3.90;;;17.60;99.90;;;;;;5113902;28;20189;-78
2022/04/14 10:04:06;;;;;;;7.17;4.07;;;17.70;99.90;;;;;;5113813;28;20534;-77
2022/04/14 10:06:33;;;;;;;6.20;4.47;;;17.60;99.90;;;;;;5114246;27;20212;-81
2022/04/14 10:09:00;;;;;;;7.00;4.13;;;17.60;99.90;;;;;;5113712;28;20200;-82
2022/04/14 10:11:29;;;;;;;3.60;2.90;;;17.70;99.90;;;;;;5114952;28;20211;-83
2022/04/14 10:14:10;;;;;;;6.77;3.90;;;17.70;99.90;;;;;;5114530;27;20211;-81
2022/04/14 10:16:40;;;;;;;7.70;4.43;;;17.70;99.90;;;;;;5114146;28;20263;-80
2022/04/14 10:19:09;;;;;;;8.07;4.60;;;17.70;99.90;;;;;;5117621;28;20200;-79
2022/04/14 10:21:36;;;;;;;9.53;4.70;;;17.70;99.90;;;;;;5117453;27;20258;-79
2022/04/14 10:24:05;;;;;;;7.47;5.33;;;17.80;99.90;;;;;;5117365;28;20213;-78
2022/04/14 10:26:35;;;;;;;6.30;5.30;;;18.00;99.90;;;;;;5117028;27;20198;-78
2022/04/14 10:29:04;;;;;;;12.63;6.27;;;18.00;99.90;;;;;;5116970;28;20295;-81
2022/04/14 10:31:32;;;;;;;10.83;6.40;;;18.10;99.90;;;;;;5117586;27;20202;-81
2022/04/14 10:34:03;;;;;;;12.40;7.00;;;18.20;99.90;;;;;;5117278;27;20211;-81
2022/04/14 10:36:30;;;;;;;10.83;6.60;;;18.00;99.90;;;;;;5117204;28;20324;-84
2022/04/14 10:38:59;;;;;;;9.37;7.20;;;17.90;99.90;;;;;;5116586;28;20197;-84
2022/04/14 10:41:28;;;;;;;10.93;7.70;;;17.90;99.90;;;;;;5117192;28;20659;-82
2022/04/14 10:44:00;;;;;;;13.43;8.30;;;17.80;99.90;;;;;;5117355;28;20208;-81
2022/04/14 10:46:32;;;;;;;9.87;8.53;;;18.00;99.90;;;;;;5117388;28;20230;-83
2022/04/14 10:49:11;;;;;;;13.30;8.57;;;18.10;99.90;;;;;;5116549;28;20205;-84
2022/04/14 10:51:38;;;;;;;10.73;8.40;;;18.10;99.90;;;;;;5116247;27;20200;-80
2022/04/14 10:54:06;;;;;;;13.40;8.40;;;18.00;99.90;;;;;;5116400;28;20431;-83
2022/04/14 10:56:51;;;;;;;11.40;9.10;;;18.00;99.90;;;;;;5116506;28;20561;-82
2022/04/14 10:59:21;;;;;;;15.77;8.67;;;18.00;99.90;;;;;;5115319;27;20206;-80
2022/04/14 11:02:02;;;;;;;13.07;8.63;;;18.20;99.90;;;;;;5119029;28;20205;-80
2022/04/14 11:04:37;;;;;;;14.10;9.63;;;18.20;99.90;;;;;;5116907;28;20711;-79
2022/04/14 11:07:11;;;;;;;9.80;8.80;;;18.30;99.90;;;;;;5116451;27;20221;-78
2022/04/14 11:09:53;;;;;;;12.23;8.80;;;18.40;99.90;;;;;;5122080;27;20194;-78
2022/04/14 11:12:22;;;;;;;13.90;8.93;;;18.60;99.90;;;;;;5118468;27;20238;-79
2022/04/14 11:14:56;;;;;;;10.47;8.47;;;18.80;99.90;;;;;;5115958;27;20614;-78
2022/04/14 11:17:48;;;;;;;11.70;8.47;;;19.00;99.90;;;;;;5116369;28;20203;-79
2022/04/14 11:20:20;;;;;;;10.73;7.70;;;18.80;99.90;;;;;;5115689;28;20207;-79
2022/04/14 11:23:04;;;;;;;12.17;8.80;;;18.70;99.90;;;;;;5116113;27;20206;-79
2022/04/14 11:25:47;;;;;;;11.13;7.90;;;18.60;99.90;;;;;;5116197;27;20206;-79
2022/04/14 11:28:22;;;;;;;14.27;8.33;;;18.80;99.90;;;;;;5115097;28;20259;-79
2022/04/14 11:30:51;;;;;;;13.40;8.20;;;18.80;99.90;;;;;;5115031;28;20211;-81
2022/04/14 11:33:36;;;;;;;12.03;7.83;;;18.80;99.90;;;;;;5115578;28;20232;-79
2022/04/14 11:36:11;;;;;;;7.10;5.13;;;18.80;99.90;;;;;;5115541;28;20227;-79
2022/04/14 11:38:52;;;;;;;5.70;5.20;;;18.80;99.90;;;;;;5116127;28;20199;-79
2022/04/14 11:41:40;;;;;;;7.10;6.37;;;18.90;99.90;;;;;;5131189;27;20214;-79
2022/04/14 11:44:09;;;;;;;6.70;5.03;;;19.00;99.90;;;;;;5136397;27;20201;-78
2022/04/14 11:46:39;;;;;;;9.80;7.90;;;19.00;99.90;;;;;;5136456;27;20206;-79
2022/04/14 11:49:07;;;;;;;8.43;7.57;;;19.10;99.90;;;;;;5136182;27;20214;-79
2022/04/14 11:51:34;;;;;;;9.87;7.13;;;18.90;99.90;;;;;;5135898;27;20200;-79
2022/04/14 11:54:01;;;;;;;9.93;7.87;;;18.70;99.90;;;;;;5136197;27;20202;-80
2022/04/14 11:56:28;;;;;;;9.97;7.20;;;18.50;99.90;;;;;;5135793;27;20294;-79
2022/04/14 11:58:55;;;;;;;9.23;6.67;;;18.40;99.90;;;;;;5135845;27;20571;-80
2022/04/14 12:01:22;;;;;;;8.30;6.10;;;18.50;99.90;;;;;;5135853;27;20628;-79
2022/04/14 12:03:51;;;;;;;10.53;5.83;;;18.60;99.90;;;;;;5135714;27;20190;-80
2022/04/14 12:06:19;;;;;;;9.20;5.80;;;18.60;99.90;;;;;;5135876;27;20548;-81
2022/04/14 12:08:56;;;;;;;9.40;5.60;;;18.60;99.90;;;;;;5135630;27;20208;-79
2022/04/14 12:11:29;;;;;;;7.40;5.30;;;18.80;99.90;;;;;;5135926;27;20290;-81
2022/04/14 12:13:58;;;;;;;10.83;6.10;;;18.70;99.90;;;;;;5136190;27;20636;-79
2022/04/14 12:16:33;;;;;;;7.43;5.93;;;18.70;99.90;;;;;;5135603;27;20276;-82
2022/04/14 12:19:02;;;;;;;12.48;7.57;;;18.90;99.90;;;;;;5135025;27;20434;-81
2022/04/14 12:21:35;;;;;;;7.47;6.23;;;18.80;99.90;;;;;;5136455;27;20192;-82
2022/04/14 12:24:02;;;;;;;9.27;5.83;;;19.10;99.90;;;;;;5136178;27;20209;-81
2022/04/14 12:26:29;;;;;;;6.90;5.17;;;19.20;99.90;;;;;;5127556;27;20203;-80
2022/04/14 12:28:56;;;;;;;8.27;7.03;;;19.10;99.90;;;;;;5114678;28;20222;-80
2022/04/14 12:31:28;;;;;;;9.70;8.17;;;18.90;99.90;;;;;;5134490;27;20545;-83
2022/04/14 12:34:02;;;;;;;11.73;8.27;;;18.90;99.90;;;;;;5135266;27;20225;-82
2022/04/14 12:36:38;;;;;;;11.47;8.57;;;18.60;99.90;;;;;;5135327;27;20217;-81
2022/04/14 12:39:06;;;;;;;12.70;8.23;;;18.50;99.90;;;;;;5135617;27;20209;-82
2022/04/14 12:41:37;;;;;;;12.07;8.47;;;18.50;99.90;;;;;;5134110;27;20205;-81